Time;durP1;ratioP1;P1;durP2;ratioP2;P2;SDS_P1;SDS_P2;PMS_P1;PMS_P2;Temp;Humidity;BMP_temperature;BMP_pressure;BME280_temperature;BME280_humidity;BME280_pressure;Samples;Min_cycle;Max_cycle;Signal;HPM_P1;HPM_P2
2022/10/09 00:00:49;;;;;;;;;9.00;8.33;;;;;14.99;52.83;-17942.53;4991696;27;45635;-77
2022/10/09 00:03:16;;;;;;;;;9.67;8.33;;;;;15.13;52.82;-17945.78;5006655;27;45622;-76
2022/10/09 00:05:43;;;;;;;;;4.33;4.00;;;;;15.01;53.19;-18609.69;4979996;28;45486;-75
2022/10/09 00:08:09;;;;;;;;;10.67;8.33;;;;;15.06;53.27;-18610.81;4982348;27;45622;-79
2022/10/09 00:10:39;;;;;;;;;11.33;9.33;;;;;15.03;53.05;-18610.06;5014716;27;45420;-82
2022/10/09 00:13:05;;;;;;;;;11.33;9.67;;;;;14.71;53.52;-18602.25;4992550;27;45464;-84
2022/10/09 00:15:30;;;;;;;;;13.00;10.33;;;;;14.96;53.21;-18941.69;4984865;27;45546;-82
2022/10/09 00:17:56;;;;;;;;;9.33;9.33;;;;;14.87;53.54;-18939.50;5037987;27;45441;-75
2022/10/09 00:20:21;;;;;;;;;7.67;7.67;;;;;14.93;53.27;-18940.91;4996184;27;45881;-81
2022/10/09 00:22:47;;;;;;;;;9.00;8.00;;;;;14.91;53.51;-18940.53;5002560;27;45422;-80
2022/10/09 00:25:12;;;;;;;;;8.67;8.67;;;;;14.92;53.56;-19274.00;4994803;27;45386;-87
2022/10/09 00:27:37;;;;;;;;;12.33;10.67;;;;;14.91;53.45;-19273.59;5006356;27;45502;-90
2022/10/09 00:30:04;;;;;;;;;9.00;8.33;;;;;14.84;53.75;-19271.88;5004025;27;47136;-76
2022/10/09 00:32:29;;;;;;;;;6.33;6.33;;;;;14.82;53.11;-19271.22;5010768;27;45493;-82
2022/10/09 00:34:54;;;;;;;;;9.67;7.67;;;;;14.83;53.24;-18938.47;5017554;27;45405;-81
2022/10/09 00:37:20;;;;;;;;;9.67;8.67;;;;;14.91;53.39;-19273.72;4989837;27;45595;-83
2022/10/09 00:39:46;;;;;;;;;8.67;7.00;;;;;14.88;53.53;-18939.63;4993320;27;46064;-78
2022/10/09 00:42:12;;;;;;;;;9.67;7.67;;;;;14.86;52.94;-18939.09;4999228;28;45583;-82
2022/10/09 00:44:56;;;;;;;;;7.00;7.00;;;;;14.95;52.99;-18941.41;4999143;27;45304;-88
2022/10/09 00:47:34;;;;;;;;;9.33;6.33;;;;;14.96;52.91;-18941.81;4998201;27;45460;-78
2022/10/09 00:50:16;;;;;;;;;9.67;7.67;;;;;14.85;53.15;-18938.84;4986324;28;47167;-78
2022/10/09 00:52:42;;;;;;;;;7.33;7.33;;;;;15.04;52.95;-18943.75;4992130;27;45519;-81
2022/10/09 00:55:11;;;;;;;;;8.67;7.67;;;;;14.97;53.06;-18941.94;4986227;27;45508;-79
2022/10/09 00:57:38;;;;;;;;;11.33;7.33;;;;;14.85;53.38;-19272.16;4978594;28;45496;-84
2022/10/09 01:00:07;;;;;;;;;6.67;6.67;;;;;14.81;53.56;-19604.22;4992760;27;46503;-84
2022/10/09 01:02:32;;;;;;;;;6.33;6.00;;;;;14.76;53.49;-19602.88;5003322;27;45696;-83
2022/10/09 01:04:58;;;;;;;;;6.33;6.33;;;;;14.72;53.60;-19601.81;4988388;27;45507;-85
2022/10/09 01:07:38;;;;;;;;;8.33;7.33;;;;;14.63;53.68;-19599.53;5002666;27;45633;-78
2022/10/09 01:10:25;;;;;;;;;6.67;6.00;;;;;14.54;53.88;-19597.25;4987891;27;47111;-80
2022/10/09 01:13:06;;;;;;;;;7.00;6.00;;;;;14.57;53.99;-19600.00;4979727;28;45313;-82
2022/10/09 01:15:47;;;;;;;;;5.67;5.67;;;;;14.54;54.12;-19599.06;5003154;27;45432;-77
2022/10/09 01:18:38;;;;;;;;;9.00;6.67;;;;;14.56;54.66;-19599.59;4995225;27;45703;-77
2022/10/09 01:21:10;;;;;;;;;39.50;33.75;;;;;14.54;54.51;-19599.06;4988335;27;46188;-78
2022/10/09 01:24:00;;;;;;;;;30.67;25.33;;;;;14.49;54.72;-19597.72;4989052;27;45453;-82
2022/10/09 01:26:56;;;;;;;;;6.00;6.00;;;;;14.46;54.14;-19597.03;4993410;28;45489;-81
2022/10/09 01:29:25;;;;;;;;;8.33;7.00;;;;;14.50;54.47;-19598.13;4976374;28;45619;-85
2022/10/09 01:31:51;;;;;;;;;8.33;7.00;;;;;14.33;54.45;-19593.69;4994347;27;46177;-79
2022/10/09 01:34:19;;;;;;;;;7.33;5.67;;;;;14.47;54.78;-19597.31;4991818;28;45500;-81
2022/10/09 01:36:45;;;;;;;;;7.00;5.33;;;;;14.48;54.80;-19597.44;5001713;28;45446;-78
2022/10/09 01:39:16;;;;;;;;;7.00;5.33;;;;;14.42;54.50;-19595.97;4987177;27;45564;-78
2022/10/09 01:41:42;;;;;;;;;6.33;6.33;;;;;14.49;54.57;-19597.84;4995613;27;46320;-78
2022/10/09 01:44:34;;;;;;;;;11.33;7.33;;;;;14.60;54.29;-19600.66;4985137;27;45586;-79
2022/10/09 01:47:00;;;;;;;;;7.00;6.33;;;;;14.46;54.74;-19597.03;4987704;27;45633;-78
2022/10/09 01:49:53;;;;;;;;;7.67;6.00;;;;;14.38;54.91;-19594.91;4997386;27;45500;-78
2022/10/09 01:52:29;;;;;;;;;7.33;6.00;;;;;14.32;54.81;-19593.28;4987925;28;45445;-79
2022/10/09 01:55:31;;;;;;;;;7.00;5.67;;;;;14.22;54.75;-19590.59;4987471;27;45556;-78
2022/10/09 01:58:10;;;;;;;;;5.67;5.33;;;;;14.16;55.23;-19589.13;4980811;27;45573;-79
2022/10/09 02:00:42;;;;;;;;;5.67;5.67;;;;;14.23;54.77;-19590.88;4983215;27;45519;-79
2022/10/09 02:03:12;;;;;;;;;8.67;5.00;;;;;14.34;54.75;-19593.94;4996281;28;45576;-79
2022/10/09 02:05:40;;;;;;;;;7.00;5.00;;;;;14.38;54.69;-19594.91;4989694;27;45452;-79
2022/10/09 02:08:07;;;;;;;;;6.00;6.00;;;;;14.36;54.74;-19594.34;4989783;28;45526;-78
2022/10/09 02:10:34;;;;;;;;;5.33;3.67;;;;;14.22;54.76;-19590.59;4999437;27;45393;-80
2022/10/09 02:13:00;;;;;;;;;5.00;5.00;;;;;14.31;54.74;-19593.00;4995105;27;46417;-79
2022/10/09 02:15:36;;;;;;;;;6.33;4.67;;;;;14.21;54.65;-19590.47;4993124;28;45421;-80
2022/10/09 02:18:08;;;;;;;;;5.00;5.00;;;;;14.18;54.94;-19589.53;4995365;27;45543;-81
2022/10/09 02:20:38;;;;;;;;;4.00;4.00;;;;;14.19;54.52;-19589.78;4994487;27;45506;-80
2022/10/09 02:23:06;;;;;;;;;7.33;5.00;;;;;14.19;54.80;-19589.94;4987994;28;48256;-79
2022/10/09 02:25:32;;;;;;;;;7.33;5.33;;;;;14.25;55.12;-19591.53;4995139;27;45422;-79
2022/10/09 02:27:58;;;;;;;;;6.00;6.00;;;;;14.23;55.28;-19590.88;4995992;27;46839;-79
2022/10/09 02:30:28;;;;;;;;;6.00;5.00;;;;;14.20;55.03;-19590.19;4995558;27;45440;-79
2022/10/09 02:32:55;;;;;;;;;6.33;5.33;;;;;14.15;55.09;-19588.97;4995344;27;45569;-79
2022/10/09 02:35:20;;;;;;;;;5.00;5.00;;;;;14.09;55.06;-19587.38;5007271;27;45804;-79
2022/10/09 02:37:47;;;;;;;;;6.00;4.33;;;;;14.01;55.14;-19585.09;4994297;27;45386;-79
2022/10/09 02:40:14;;;;;;;;;5.00;4.67;;;;;14.07;55.47;-19586.69;4994044;27;45362;-79
2022/10/09 02:42:39;;;;;;;;;6.67;5.67;;;;;13.95;55.38;-19583.59;4994924;27;46160;-79
2022/10/09 02:45:05;;;;;;;;;5.67;4.67;;;;;14.00;55.38;-19584.94;4995772;27;45466;-79
2022/10/09 02:47:31;;;;;;;;;5.00;5.00;;;;;13.98;55.49;-19584.41;4977769;28;45588;-79
2022/10/09 02:49:56;;;;;;;;;5.67;4.33;;;;;13.85;55.51;-19581.06;5003223;27;45481;-79
2022/10/09 02:52:22;;;;;;;;;5.67;5.00;;;;;13.97;55.67;-19584.00;4978808;27;47142;-79
2022/10/09 02:54:47;;;;;;;;;7.67;5.33;;;;;13.92;55.60;-19582.81;4995691;27;45430;-79
2022/10/09 02:57:12;;;;;;;;;7.00;5.33;;;;;13.82;55.39;-19580.25;4983820;28;45389;-79
2022/10/09 02:59:38;;;;;;;;;8.00;6.00;;;;;13.84;55.86;-19580.78;5002291;27;45425;-79
2022/10/09 03:02:03;;;;;;;;;6.67;5.00;;;;;13.82;55.87;-19580.25;4997199;27;47520;-79
2022/10/09 03:04:28;;;;;;;;;4.67;4.67;;;;;13.68;55.94;-19576.50;4976172;28;45399;-79
2022/10/09 03:06:54;;;;;;;;;3.33;3.33;;;;;13.72;55.72;-19577.56;4997034;27;45500;-79
2022/10/09 03:09:19;;;;;;;;;4.67;4.67;;;;;13.64;55.73;-19575.53;4994435;27;45457;-79
2022/10/09 03:11:44;;;;;;;;;5.00;4.67;;;;;13.69;56.04;-19576.75;5003189;27;46449;-79
2022/10/09 03:14:10;;;;;;;;;6.67;5.00;;;;;13.62;56.18;-19574.88;4994695;27;45487;-79
2022/10/09 03:16:35;;;;;;;;;8.00;5.00;;;;;13.65;56.15;-19575.81;4996355;28;45663;-79
2022/10/09 03:19:00;;;;;;;;;6.67;6.33;;;;;13.57;56.27;-19573.66;4999342;27;45438;-78
2022/10/09 03:21:27;;;;;;;;;7.00;5.00;;;;;13.50;56.33;-19571.91;4970109;27;47182;-79
2022/10/09 03:23:53;;;;;;;;;5.00;5.00;;;;;13.59;56.56;-19574.19;4997405;27;46995;-78
2022/10/09 03:26:21;;;;;;;;;6.33;4.67;;;;;13.55;56.49;-19573.13;5001341;28;45605;-78
2022/10/09 03:28:48;;;;;;;;;2.33;2.00;;;;;13.54;56.30;-19572.84;4982522;28;45605;-78
2022/10/09 03:31:19;;;;;;;;;4.33;4.33;;;;;13.52;56.25;-19572.31;5001241;28;45614;-79
2022/10/09 03:33:45;;;;;;;;;6.67;5.67;;;;;13.29;57.07;-19566.41;4999244;27;45458;-79
2022/10/09 03:36:11;;;;;;;;;2.67;2.67;;;;;13.17;57.15;-19563.16;4975915;28;45468;-79
2022/10/09 03:38:37;;;;;;;;;8.67;4.00;;;;;13.10;57.58;-19561.41;4997483;28;45310;-79
2022/10/09 03:41:04;;;;;;;;;3.00;3.00;;;;;13.12;57.60;-19561.81;4977124;28;45544;-79
2022/10/09 03:43:29;;;;;;;;;6.00;5.00;;;;;13.01;57.64;-19558.88;5004505;27;45523;-79
2022/10/09 03:45:55;;;;;;;;;8.00;5.00;;;;;13.07;58.05;-19560.47;4995715;27;45487;-79
2022/10/09 03:48:21;;;;;;;;;5.67;5.00;;;;;13.06;57.71;-19560.34;4998430;27;45373;-79
2022/10/09 03:50:46;;;;;;;;;5.00;5.00;;;;;13.01;57.80;-19558.88;5001978;27;47087;-79
2022/10/09 03:53:12;;;;;;;;;6.00;6.00;;;;;12.94;57.78;-19557.13;4984642;28;46629;-79
2022/10/09 03:55:38;;;;;;;;;5.00;3.67;;;;;13.03;57.73;-19559.41;4998186;27;45385;-79
2022/10/09 03:58:04;;;;;;;;;4.00;4.00;;;;;12.98;57.64;-19558.06;4996136;27;46627;-79
2022/10/09 04:00:30;;;;;;;;;4.00;3.00;;;;;12.99;57.85;-19558.47;4993118;27;46136;-79
2022/10/09 04:02:55;;;;;;;;;4.33;4.33;;;;;12.83;58.13;-19554.28;4998403;27;45476;-79
2022/10/09 04:05:21;;;;;;;;;5.00;5.00;;;;;12.87;58.06;-19555.22;4998049;27;47077;-79
2022/10/09 04:07:46;;;;;;;;;0.00;0.00;;;;;12.85;58.32;-19554.84;4994659;27;45599;-79
2022/10/09 04:10:13;;;;;;;;;5.33;4.00;;;;;12.68;58.08;-19550.38;4976845;28;46450;-79
2022/10/09 04:12:38;;;;;;;;;6.00;4.00;;;;;12.83;58.03;-19554.16;4994250;28;45424;-79
2022/10/09 04:15:04;;;;;;;;;4.67;4.00;;;;;12.79;58.10;-19553.09;4977416;28;45481;-79
2022/10/09 04:17:30;;;;;;;;;8.33;5.00;;;;;12.70;57.98;-19550.66;4981706;28;45496;-79
2022/10/09 04:19:55;;;;;;;;;7.00;5.00;;;;;12.80;58.04;-19553.47;4996443;27;46120;-79
2022/10/09 04:22:21;;;;;;;;;3.67;3.67;;;;;12.63;58.38;-19549.03;4993263;28;45539;-79
2022/10/09 04:24:46;;;;;;;;;5.33;5.33;;;;;12.77;58.19;-19552.53;4993788;27;45354;-79
2022/10/09 04:27:12;;;;;;;;;4.67;4.67;;;;;13.02;57.53;-19559.13;4994318;27;45354;-79
2022/10/09 04:29:38;;;;;;;;;3.33;3.00;;;;;12.84;57.29;-19554.56;5000240;28;45444;-79
2022/10/09 04:32:04;;;;;;;;;3.67;3.67;;;;;12.82;57.98;-19554.03;4996569;27;45443;-79
2022/10/09 04:34:29;;;;;;;;;8.00;5.00;;;;;12.87;57.49;-19555.22;4993909;28;45492;-79
2022/10/09 04:36:55;;;;;;;;;3.00;3.00;;;;;12.95;57.54;-19557.25;4998814;27;45518;-80
2022/10/09 04:39:20;;;;;;;;;4.00;3.00;;;;;12.93;57.57;-19556.72;4992191;28;46129;-80
2022/10/09 04:41:45;;;;;;;;;3.00;3.00;;;;;12.72;57.27;-19551.19;4996635;27;45436;-80
2022/10/09 04:44:11;;;;;;;;;7.00;7.00;;;;;12.81;57.28;-19553.63;5002714;27;45457;-79
2022/10/09 04:46:36;;;;;;;;;5.67;5.00;;;;;12.79;57.64;-19553.09;4999073;27;45384;-80
2022/10/09 04:49:02;;;;;;;;;6.00;6.00;;;;;12.77;57.77;-19552.69;4979233;28;46134;-80
2022/10/09 04:51:27;;;;;;;;;6.00;6.00;;;;;12.77;57.85;-19552.69;4999216;27;45371;-79
2022/10/09 04:53:55;;;;;;;;;7.67;7.67;;;;;12.54;57.97;-19546.63;4996445;27;45373;-80
2022/10/09 04:56:21;;;;;;;;;8.00;8.00;;;;;12.74;57.91;-19551.75;4997752;27;45358;-80
2022/10/09 04:58:47;;;;;;;;;9.00;7.00;;;;;12.73;57.96;-19551.59;4996202;27;45457;-80
2022/10/09 05:01:19;;;;;;;;;10.00;9.33;;;;;12.70;58.26;-19550.78;4984095;28;45571;-80
2022/10/09 05:03:45;;;;;;;;;8.67;8.67;;;;;12.68;58.33;-19550.38;5003077;27;45525;-80
2022/10/09 05:06:12;;;;;;;;;14.00;10.00;;;;;12.47;58.32;-19544.72;4986037;28;47089;-80
2022/10/09 05:08:38;;;;;;;;;11.33;7.67;;;;;12.66;58.17;-19549.84;5005703;27;46958;-80
2022/10/09 05:11:15;;;;;;;;;9.00;8.33;;;;;12.56;58.32;-19547.03;5002599;27;45501;-79
2022/10/09 05:13:44;;;;;;;;;9.33;8.67;;;;;12.60;58.65;-19548.09;4999029;27;45610;-80
2022/10/09 05:16:14;;;;;;;;;10.00;10.00;;;;;12.52;58.40;-19545.94;4998967;27;45431;-80
2022/10/09 05:18:46;;;;;;;;;12.00;11.00;;;;;12.65;58.37;-19549.44;5004544;27;45502;-80
2022/10/09 05:21:12;;;;;;;;;10.00;10.00;;;;;12.62;58.44;-19548.63;4995917;27;46721;-80
2022/10/09 05:23:37;;;;;;;;;10.00;10.00;;;;;12.53;58.53;-19546.34;4996604;27;45519;-80
2022/10/09 05:26:08;;;;;;;;;8.00;7.67;;;;;12.60;58.60;-19548.25;4997296;27;45409;-80
2022/10/09 05:28:34;;;;;;;;;9.00;9.00;;;;;12.60;58.74;-19548.09;5001369;27;46105;-80
2022/10/09 05:31:02;;;;;;;;;10.00;10.00;;;;;12.57;58.60;-19547.28;5003241;27;45566;-80
2022/10/09 05:33:28;;;;;;;;;12.33;11.33;;;;;12.56;58.60;-19547.16;4990090;28;45776;-80
2022/10/09 05:35:58;;;;;;;;;10.00;10.00;;;;;12.57;58.62;-19547.44;5000191;27;45299;-80
2022/10/09 05:38:25;;;;;;;;;10.33;10.33;;;;;12.58;58.69;-19547.69;5003424;27;47516;-80
2022/10/09 05:40:56;;;;;;;;;11.00;9.33;;;;;12.55;58.46;-19546.88;4996314;27;46217;-80
2022/10/09 05:43:27;;;;;;;;;12.33;10.00;;;;;12.52;58.54;-19546.09;4976825;28;45580;-80
2022/10/09 05:45:52;;;;;;;;;9.33;9.00;;;;;12.51;58.39;-19545.69;4992256;27;46206;-80
2022/10/09 05:48:18;;;;;;;;;11.33;10.33;;;;;12.44;58.61;-19543.94;4998612;27;45985;-80
2022/10/09 05:50:43;;;;;;;;;12.00;12.00;;;;;12.39;58.54;-19542.59;4995512;27;45575;-80
2022/10/09 05:53:09;;;;;;;;;9.00;8.33;;;;;12.42;58.56;-19543.53;5001638;27;45490;-80
2022/10/09 05:55:34;;;;;;;;;10.00;10.00;;;;;12.28;58.80;-19539.63;4998357;27;45534;-79
2022/10/09 05:57:59;;;;;;;;;10.33;10.00;;;;;12.29;58.63;-19539.88;4997295;27;46011;-79
2022/10/09 06:00:25;;;;;;;;;13.33;12.00;;;;;12.25;58.47;-19538.94;4997266;27;46398;-80
2022/10/09 06:02:52;;;;;;;;;11.67;10.67;;;;;12.32;58.66;-19540.84;5003563;27;45528;-80
2022/10/09 06:05:18;;;;;;;;;11.00;11.00;;;;;12.30;59.13;-19540.28;4996036;27;45455;-80
2022/10/09 06:07:45;;;;;;;;;12.33;12.00;;;;;12.12;58.68;-19535.44;4995122;27;45965;-79
2022/10/09 06:10:10;;;;;;;;;7.67;7.67;;;;;12.25;58.84;-19538.94;5003285;27;45381;-80
2022/10/09 06:12:36;;;;;;;;;15.33;10.33;;;;;12.24;59.11;-19538.81;4995588;27;45717;-80
2022/10/09 06:15:01;;;;;;;;;11.00;10.00;;;;;12.25;59.02;-19539.09;4996263;27;45499;-80
2022/10/09 06:17:26;;;;;;;;;11.67;10.67;;;;;12.29;59.15;-19540.03;4999800;27;45996;-80
2022/10/09 06:19:52;;;;;;;;;9.00;9.00;;;;;12.19;58.87;-19537.47;5001094;27;45353;-79
2022/10/09 06:22:17;;;;;;;;;9.67;9.00;;;;;12.29;58.85;-19540.03;4999346;27;45469;-78
2022/10/09 06:24:42;;;;;;;;;10.00;9.00;;;;;12.28;59.10;-19539.75;4996781;27;45311;-79
2022/10/09 06:27:09;;;;;;;;;11.00;9.00;;;;;12.29;59.15;-19540.03;4996678;27;46290;-79
2022/10/09 06:29:35;;;;;;;;;8.33;8.33;;;;;12.22;59.07;-19538.28;4996106;27;45396;-79
2022/10/09 06:32:00;;;;;;;;;9.33;7.33;;;;;12.29;58.95;-19540.03;4996385;27;45501;-78
2022/10/09 06:34:25;;;;;;;;;7.00;7.00;;;;;12.30;58.96;-19540.28;4995912;27;45800;-79
2022/10/09 06:36:51;;;;;;;;;6.67;5.00;;;;;12.27;59.00;-19539.50;5003862;27;47182;-79
2022/10/09 06:39:16;;;;;;;;;6.00;6.00;;;;;12.35;58.83;-19541.50;4977749;28;45948;-78
2022/10/09 06:41:42;;;;;;;;;5.67;5.67;;;;;12.27;59.03;-19539.34;5004626;27;45439;-78
2022/10/09 06:44:11;;;;;;;;;5.00;4.67;;;;;12.36;59.03;-19541.91;4995557;27;45559;-78
2022/10/09 06:46:40;;;;;;;;;7.33;7.33;;;;;12.43;58.96;-19543.78;4985947;27;45639;-78
2022/10/09 06:49:06;;;;;;;;;6.00;5.00;;;;;12.46;58.74;-19544.59;4999344;27;45623;-75
2022/10/09 06:51:33;;;;;;;;;7.67;5.33;;;;;12.52;58.55;-19546.09;4992961;27;45487;-77
2022/10/09 06:54:00;;;;;;;;;7.00;5.67;;;;;12.57;58.69;-19547.28;5001264;27;45408;-75
2022/10/09 06:56:28;;;;;;;;;5.67;5.00;;;;;12.60;58.61;-19548.09;4999018;27;47544;-81
2022/10/09 06:58:53;;;;;;;;;7.33;7.33;;;;;12.61;58.55;-19548.38;5006506;27;45700;-79
2022/10/09 07:01:25;;;;;;;;;4.00;4.00;;;;;12.74;58.31;-19551.75;4989902;27;46537;-83
2022/10/09 07:03:56;;;;;;;;;5.33;5.33;;;;;12.74;58.02;-19551.88;4993432;27;45533;-79
2022/10/09 07:06:24;;;;;;;;;7.00;5.33;;;;;12.88;58.11;-19555.63;4986402;27;45950;-82
2022/10/09 07:08:53;;;;;;;;;6.00;6.00;;;;;12.95;57.93;-19557.25;4994702;27;45634;-82
2022/10/09 07:11:21;;;;;;;;;7.00;5.00;;;;;13.04;57.24;-19559.66;4989635;27;45438;-85
2022/10/09 07:13:49;;;;;;;;;8.67;5.00;;;;;13.09;57.39;-19561.16;4980297;27;46539;-76
2022/10/09 07:16:19;;;;;;;;;5.00;5.00;;;;;12.84;57.88;-19554.56;5008609;27;47442;-77
2022/10/09 07:18:44;;;;;;;;;7.00;5.67;;;;;12.85;58.00;-19554.84;4992388;27;45614;-76
2022/10/09 07:21:10;;;;;;;;;6.00;4.00;;;;;12.96;58.01;-19557.66;5008004;27;45419;-77
2022/10/09 07:23:35;;;;;;;;;4.00;4.00;;;;;13.02;57.66;-19559.28;4989736;28;45546;-76
2022/10/09 07:26:07;;;;;;;;;6.00;5.00;;;;;13.04;57.48;-19559.81;4997334;28;46027;-76
2022/10/09 07:28:32;;;;;;;;;71.25;53.25;;;;;13.13;57.67;-19561.97;5006396;27;45429;-78
2022/10/09 07:31:01;;;;;;;;;50.25;38.75;;;;;13.13;57.79;-19561.97;4992225;27;45471;-80
2022/10/09 07:33:27;;;;;;;;;179.33;154.00;;;;;13.07;57.54;-19560.63;4993863;27;45653;-75
2022/10/09 07:35:54;;;;;;;;;48.75;38.00;;;;;13.38;57.74;-19568.56;5000973;27;45548;-77
2022/10/09 07:38:20;;;;;;;;;16.33;16.00;;;;;13.35;57.38;-19567.75;4991821;27;45561;-77
2022/10/09 07:40:45;;;;;;;;;9.33;8.00;;;;;13.53;57.36;-19572.59;4996665;28;45501;-73
2022/10/09 07:43:10;;;;;;;;;7.67;7.67;;;;;13.61;57.14;-19574.75;5000441;27;45523;-81
2022/10/09 07:45:36;;;;;;;;;7.00;7.00;;;;;13.67;57.21;-19576.22;4988392;28;47424;-75
2022/10/09 07:48:01;;;;;;;;;8.33;6.00;;;;;13.69;56.81;-19576.88;4999401;27;45833;-82
2022/10/09 07:50:26;;;;;;;;;6.00;6.00;;;;;13.77;56.35;-19578.78;4994252;28;45478;-78
2022/10/09 07:52:52;;;;;;;;;6.00;6.00;;;;;13.92;55.96;-19582.81;4976184;27;46326;-76
2022/10/09 07:55:17;;;;;;;;;7.33;7.00;;;;;13.99;56.07;-19584.69;4995333;27;46904;-76
2022/10/09 07:57:42;;;;;;;;;9.00;6.00;;;;;14.00;55.65;-19584.81;4975209;28;45528;-74
2022/10/09 08:00:08;;;;;;;;;7.33;7.00;;;;;14.03;55.83;-19585.75;4977009;28;46361;-75
2022/10/09 08:02:34;;;;;;;;;7.33;5.67;;;;;14.03;55.35;-19585.75;4992014;27;45632;-79
2022/10/09 08:04:59;;;;;;;;;5.00;4.00;;;;;13.87;55.66;-19581.59;4992243;27;46901;-81
2022/10/09 08:07:24;;;;;;;;;6.00;6.00;;;;;14.08;55.57;-19586.97;4974293;28;45475;-84
2022/10/09 08:09:51;;;;;;;;;9.33;6.67;;;;;14.12;55.74;-19588.03;4992975;27;45556;-80
2022/10/09 08:12:16;;;;;;;;;4.67;4.67;;;;;14.16;55.34;-19589.13;4990796;27;45497;-85
2022/10/09 08:14:41;;;;;;;;;6.67;4.33;;;;;14.27;55.60;-19591.94;4994176;27;46490;-78
2022/10/09 08:17:07;;;;;;;;;8.00;6.00;;;;;14.27;55.38;-19591.94;4999518;27;45483;-78
2022/10/09 08:19:32;;;;;;;;;8.33;4.67;;;;;14.34;55.89;-19593.94;5013590;27;45645;-80
2022/10/09 08:21:57;;;;;;;;;8.00;7.33;;;;;14.45;55.93;-19596.78;5015360;27;45866;-80
2022/10/09 08:24:23;;;;;;;;;25.00;20.33;;;;;14.57;55.68;-19600.00;4994336;27;45970;-78
2022/10/09 08:26:48;;;;;;;;;45.75;35.75;;;;;14.83;56.88;-19606.59;4978411;27;45785;-78
2022/10/09 08:29:15;;;;;;;;;9.33;7.67;;;;;14.93;56.75;-19609.25;4983262;28;45451;-80
2022/10/09 08:31:41;;;;;;;;;6.33;6.33;;;;;15.19;56.52;-19616.09;4994674;27;45706;-81
2022/10/09 08:34:06;;;;;;;;;5.00;4.00;;;;;15.27;55.56;-19618.25;4994627;27;45968;-79
2022/10/09 08:36:31;;;;;;;;;5.67;4.00;;;;;15.15;56.51;-19615.16;4989211;27;45537;-76
2022/10/09 08:38:57;;;;;;;;;5.67;5.67;;;;;15.35;55.16;-19620.25;5009088;27;45655;-75
2022/10/09 08:41:32;;;;;;;;;7.67;7.00;;;;;15.46;55.07;-19623.09;5013920;27;46267;-79
2022/10/09 08:44:09;;;;;;;;;7.67;6.67;;;;;15.38;54.15;-19621.22;4991874;27;48691;-73
2022/10/09 08:46:48;;;;;;;;;10.00;5.67;;;;;15.35;54.69;-19620.41;4988344;27;45515;-76
2022/10/09 08:49:25;;;;;;;;;8.33;8.00;;;;;15.31;54.55;-19619.19;5017056;27;45653;-75
2022/10/09 08:51:53;;;;;;;;;4.67;4.33;;;;;15.45;55.04;-19622.81;5011418;27;45806;-78
2022/10/09 08:54:37;;;;;;;;;7.33;7.33;;;;;15.49;53.68;-19623.88;4996666;27;45580;-77
2022/10/09 08:57:10;;;;;;;;;6.67;4.00;;;;;15.76;53.79;-19631.00;4996002;27;45472;-79
2022/10/09 08:59:35;;;;;;;;;9.00;7.00;;;;;15.85;53.81;-19633.41;4983767;27;45477;-75
2022/10/09 09:02:27;;;;;;;;;7.00;7.00;;;;;15.97;53.96;-19636.63;4988900;27;45596;-77
2022/10/09 09:04:53;;;;;;;;;8.00;5.67;;;;;16.12;52.98;-19640.38;4984637;27;45424;-76
2022/10/09 09:07:41;;;;;;;;;8.33;8.33;;;;;16.27;53.13;-19644.41;5009488;27;45523;-75
2022/10/09 09:10:19;;;;;;;;;8.33;6.67;;;;;16.45;53.12;-19649.22;4999765;27;45482;-74
2022/10/09 09:13:08;;;;;;;;;9.00;9.00;;;;;16.57;53.47;-19652.16;5001797;27;45443;-74
2022/10/09 09:15:43;;;;;;;;;9.67;7.67;;;;;16.68;53.50;-19655.13;4993696;27;45498;-75
2022/10/09 09:18:15;;;;;;;;;8.00;6.33;;;;;16.77;52.59;-19657.53;4996295;27;45346;-73
2022/10/09 09:21:08;;;;;;;;;9.67;7.33;;;;;16.94;52.16;-19661.94;4968059;28;45749;-75
2022/10/09 09:23:40;;;;;;;;;8.67;7.67;;;;;17.30;52.06;-19671.47;4984831;27;45553;-77
2022/10/09 09:26:12;;;;;;;;;8.33;6.00;;;;;17.86;50.49;-19685.91;4997171;27;45535;-79
2022/10/09 09:28:38;;;;;;;;;6.00;6.00;;;;;18.57;49.73;-19704.50;4990142;27;45781;-76
2022/10/09 09:31:25;;;;;;;;;6.33;6.33;;;;;19.83;48.98;-19737.34;4987906;27;45659;-76
2022/10/09 09:34:00;;;;;;;;;10.67;9.67;;;;;21.44;46.56;-19779.19;4985519;28;45568;-77
2022/10/09 09:36:25;;;;;;;;;11.00;9.33;;;;;;;;5005004;27;47366;-76
2022/10/09 09:38:51;;;;;;;;;7.67;7.00;;;;;24.22;41.53;-18835.00;4997934;27;45468;-77
2022/10/09 09:41:16;;;;;;;;;8.33;7.33;;;;;25.59;39.71;-15138.06;5010009;27;45448;-78
2022/10/09 09:43:42;;;;;;;;;6.67;6.67;;;;;26.80;37.77;-10398.47;4994807;27;45401;-82
2022/10/09 09:46:17;;;;;;;;;7.00;6.00;;;;;27.97;36.48;-4268.78;5020534;27;45534;-77
2022/10/09 09:48:46;;;;;;;;;7.33;7.33;;;;;28.89;34.70;4289.84;4977060;27;45495;-77
2022/10/09 09:51:32;;;;;;;;;9.00;7.67;;;;;29.76;33.50;19155.53;5001925;27;45436;-77
2022/10/09 09:54:15;;;;;;;;;11.00;10.67;;;;;30.57;32.35;32924.84;4995616;27;46214;-77
2022/10/09 09:56:43;;;;;;;;;10.00;9.00;;;;;31.35;30.37;39822.25;5008926;27;45617;-77
2022/10/09 09:59:30;;;;;;;;;8.00;7.00;;;;;31.94;29.52;49677.53;4988007;27;45452;-77
2022/10/09 10:02:00;;;;;;;;;7.00;6.67;;;;;32.53;28.85;52643.72;5000002;27;45458;-77
2022/10/09 10:04:27;;;;;;;;;6.00;6.00;;;;;33.03;27.51;54779.25;4994777;27;45565;-77
2022/10/09 10:06:53;;;;;;;;;8.25;8.25;;;;;33.52;26.49;57183.03;4990266;27;46211;-78
2022/10/09 10:09:19;;;;;;;;;13.33;9.00;;;;;33.93;26.43;58965.53;4984930;27;45491;-78
2022/10/09 10:11:49;;;;;;;;;7.00;7.00;;;;;34.51;26.15;58921.44;4987948;27;45478;-80
2022/10/09 10:14:16;;;;;;;;;5.00;5.00;;;;;34.87;25.24;59585.13;4985580;28;45515;-81
2022/10/09 10:16:42;;;;;;;;;5.00;4.00;;;;;35.30;24.87;60034.13;4998259;27;45661;-77
2022/10/09 10:19:19;;;;;;;;;7.00;7.00;;;;;35.64;24.01;60743.50;4983855;27;45416;-79
2022/10/09 10:21:55;;;;;;;;;5.00;5.00;;;;;36.00;23.67;61296.94;4990120;27;45475;-79
2022/10/09 10:24:26;;;;;;;;;3.67;3.67;;;;;36.29;23.45;61551.72;5010545;27;45472;-75
2022/10/09 10:27:00;;;;;;;;;4.00;4.00;;;;;36.50;23.07;61793.31;5010757;27;45679;-79
2022/10/09 10:29:39;;;;;;;;;4.67;3.67;;;;;36.78;23.07;61998.47;4975828;27;45584;-80
2022/10/09 10:32:16;;;;;;;;;4.33;3.33;;;;;36.81;23.57;62254.81;4976400;27;45417;-78
2022/10/09 10:34:51;;;;;;;;;4.67;3.00;;;;;36.92;22.43;62799.94;4983994;27;45250;-80
2022/10/09 10:37:37;;;;;;;;;4.00;3.00;;;;;36.89;21.57;63168.31;5008064;27;47337;-78
2022/10/09 10:40:19;;;;;;;;;5.67;5.00;;;;;36.84;21.51;63504.78;4995155;27;45474;-79
2022/10/09 10:42:58;;;;;;;;;4.33;3.00;;;;;36.74;21.80;63789.00;4985151;27;45396;-77
2022/10/09 10:45:28;;;;;;;;;4.33;2.67;;;;;36.97;21.71;63686.84;4981532;27;45296;-78
2022/10/09 10:47:57;;;;;;;;;4.33;3.33;;;;;36.98;21.49;63908.19;4979367;27;46120;-78
2022/10/09 10:50:29;;;;;;;;;2.00;2.00;;;;;36.89;21.45;64300.38;4988341;28;45492;-79
2022/10/09 10:53:05;;;;;;;;;4.00;4.00;;;;;36.97;22.15;64210.00;5041751;28;46063;-80
2022/10/09 10:55:46;;;;;;;;;4.00;2.67;;;;;37.30;20.79;64192.75;5045975;28;45534;-83
2022/10/09 10:58:17;;;;;;;;;2.00;2.00;;;;;37.56;20.69;64168.31;5051138;28;47075;-80
2022/10/09 11:00:53;;;;;;;;;5.33;2.67;;;;;37.57;20.96;64077.91;5056776;28;45518;-81
2022/10/09 11:03:40;;;;;;;;;2.00;2.00;;;;;37.69;20.95;64380.47;5044974;28;45534;-78
2022/10/09 11:06:33;;;;;;;;;2.00;1.33;;;;;37.78;20.68;64475.84;5051466;28;45531;-80
2022/10/09 11:09:19;;;;;;;;;2.00;2.00;;;;;37.74;20.65;64713.53;5049128;28;45479;-80
2022/10/09 11:12:10;;;;;;;;;4.33;2.33;;;;;37.95;20.49;64645.66;5043916;28;45322;-80
2022/10/09 11:14:36;;;;;;;;;3.67;2.00;;;;;37.74;20.09;64987.06;5053047;28;45608;-77
2022/10/09 11:17:14;;;;;;;;;2.00;2.00;;;;;37.54;20.53;65119.88;5054230;28;45471;-77
2022/10/09 11:20:12;;;;;;;;;1.00;1.00;;;;;37.62;20.37;65238.47;5065137;27;47230;-77
2022/10/09 11:23:17;;;;;;;;;3.00;1.67;;;;;37.54;20.14;65373.50;5027157;28;46028;-80
2022/10/09 11:25:55;;;;;;;;;1.00;1.00;;;;;37.02;20.64;65804.28;5036785;28;45726;-80
2022/10/09 11:28:26;;;;;;;;;2.00;2.00;;;;;36.78;20.56;65932.16;5027841;28;45604;-77
2022/10/09 11:31:01;;;;;;;;;2.00;2.00;;;;;36.73;20.48;65940.88;5034157;28;45944;-87
2022/10/09 11:33:56;;;;;;;;;2.00;2.00;;;;;36.56;20.76;66186.63;5031376;28;46217;-80
2022/10/09 11:36:42;;;;;;;;;2.33;2.33;;;;;36.18;21.69;66361.16;5013079;28;45585;-86